sensor_id;sensor_type;location;lat;lon;timestamp;P1;durP1;ratioP1;P2;durP2;ratioP2
53644;SDS011;39547;45.554;12.068;2023-04-24T00:03:36;20.05;;;10.40;;
53644;SDS011;39547;45.554;12.068;2023-04-24T00:09:37;19.55;;;9.93;;
53644;SDS011;39547;45.554;12.068;2023-04-24T00:15:39;22.00;;;9.50;;
53644;SDS011;39547;45.554;12.068;2023-04-24T00:21:40;19.88;;;10.00;;
53644;SDS011;39547;45.554;12.068;2023-04-24T00:27:42;17.23;;;8.85;;
53644;SDS011;39547;45.554;12.068;2023-04-24T00:33:43;18.15;;;9.27;;
53644;SDS011;39547;45.554;12.068;2023-04-24T00:39:45;18.17;;;9.77;;
53644;SDS011;39547;45.554;12.068;2023-04-24T00:45:46;16.63;;;9.20;;
53644;SDS011;39547;45.554;12.068;2023-04-24T00:51:48;18.48;;;9.15;;
53644;SDS011;39547;45.554;12.068;2023-04-24T00:57:51;19.30;;;10.15;;
53644;SDS011;39547;45.554;12.068;2023-04-24T01:03:53;19.75;;;11.13;;
53644;SDS011;39547;45.554;12.068;2023-04-24T01:09:55;19.35;;;10.27;;
53644;SDS011;39547;45.554;12.068;2023-04-24T01:16:00;23.47;;;12.23;;
53644;SDS011;39547;45.554;12.068;2023-04-24T01:22:02;20.67;;;11.15;;
53644;SDS011;39547;45.554;12.068;2023-04-24T01:28:03;19.73;;;9.32;;
53644;SDS011;39547;45.554;12.068;2023-04-24T01:34:06;23.70;;;11.73;;
53644;SDS011;39547;45.554;12.068;2023-04-24T01:40:08;18.90;;;9.82;;
53644;SDS011;39547;45.554;12.068;2023-04-24T01:46:10;20.35;;;10.75;;
53644;SDS011;39547;45.554;12.068;2023-04-24T01:52:12;22.73;;;13.02;;
53644;SDS011;39547;45.554;12.068;2023-04-24T01:58:13;20.83;;;11.05;;
53644;SDS011;39547;45.554;12.068;2023-04-24T02:04:15;19.90;;;10.90;;
53644;SDS011;39547;45.554;12.068;2023-04-24T02:10:17;18.13;;;9.32;;
53644;SDS011;39547;45.554;12.068;2023-04-24T02:16:18;17.60;;;9.18;;
53644;SDS011;39547;45.554;12.068;2023-04-24T02:22:20;21.20;;;11.02;;
53644;SDS011;39547;45.554;12.068;2023-04-24T02:28:21;18.42;;;9.82;;
53644;SDS011;39547;45.554;12.068;2023-04-24T02:34:25;19.30;;;10.63;;
53644;SDS011;39547;45.554;12.068;2023-04-24T02:40:26;20.70;;;10.55;;
53644;SDS011;39547;45.554;12.068;2023-04-24T02:46:28;18.27;;;8.63;;
53644;SDS011;39547;45.554;12.068;2023-04-24T02:52:29;19.35;;;9.27;;
53644;SDS011;39547;45.554;12.068;2023-04-24T02:58:31;18.55;;;10.00;;
53644;SDS011;39547;45.554;12.068;2023-04-24T03:04:32;19.08;;;10.05;;
53644;SDS011;39547;45.554;12.068;2023-04-24T03:10:34;21.85;;;11.43;;
53644;SDS011;39547;45.554;12.068;2023-04-24T03:16:35;16.58;;;8.13;;
53644;SDS011;39547;45.554;12.068;2023-04-24T03:22:37;17.60;;;8.70;;
53644;SDS011;39547;45.554;12.068;2023-04-24T03:28:41;18.17;;;9.57;;
53644;SDS011;39547;45.554;12.068;2023-04-24T03:34:43;17.73;;;8.38;;
53644;SDS011;39547;45.554;12.068;2023-04-24T03:40:48;17.15;;;8.45;;
53644;SDS011;39547;45.554;12.068;2023-04-24T03:47:07;16.13;;;8.10;;
53644;SDS011;39547;45.554;12.068;2023-04-24T03:53:12;17.83;;;9.27;;
53644;SDS011;39547;45.554;12.068;2023-04-24T03:59:15;17.10;;;8.40;;
53644;SDS011;39547;45.554;12.068;2023-04-24T04:05:21;18.65;;;9.18;;
53644;SDS011;39547;45.554;12.068;2023-04-24T04:11:22;18.67;;;9.20;;
53644;SDS011;39547;45.554;12.068;2023-04-24T04:17:25;18.13;;;8.98;;
53644;SDS011;39547;45.554;12.068;2023-04-24T04:23:26;20.45;;;10.05;;
53644;SDS011;39547;45.554;12.068;2023-04-24T04:29:44;17.55;;;9.02;;
53644;SDS011;39547;45.554;12.068;2023-04-24T04:35:47;20.65;;;10.23;;
53644;SDS011;39547;45.554;12.068;2023-04-24T04:41:58;20.52;;;9.93;;
53644;SDS011;39547;45.554;12.068;2023-04-24T04:48:07;19.05;;;9.55;;
53644;SDS011;39547;45.554;12.068;2023-04-24T04:54:10;19.50;;;9.37;;
53644;SDS011;39547;45.554;12.068;2023-04-24T05:00:12;25.60;;;12.35;;
53644;SDS011;39547;45.554;12.068;2023-04-24T05:06:22;21.42;;;11.27;;
53644;SDS011;39547;45.554;12.068;2023-04-24T05:12:24;22.77;;;11.90;;
53644;SDS011;39547;45.554;12.068;2023-04-24T05:18:27;24.33;;;12.45;;
53644;SDS011;39547;45.554;12.068;2023-04-24T05:24:28;23.95;;;12.38;;
53644;SDS011;39547;45.554;12.068;2023-04-24T05:30:55;24.08;;;11.15;;
53644;SDS011;39547;45.554;12.068;2023-04-24T05:36:58;26.07;;;14.10;;
53644;SDS011;39547;45.554;12.068;2023-04-24T05:43:00;24.17;;;12.13;;
53644;SDS011;39547;45.554;12.068;2023-04-24T05:49:02;25.38;;;12.35;;
53644;SDS011;39547;45.554;12.068;2023-04-24T05:55:05;18.75;;;9.65;;
53644;SDS011;39547;45.554;12.068;2023-04-24T06:01:09;22.00;;;11.57;;
53644;SDS011;39547;45.554;12.068;2023-04-24T06:07:11;26.20;;;13.05;;
53644;SDS011;39547;45.554;12.068;2023-04-24T06:13:15;26.90;;;13.68;;
53644;SDS011;39547;45.554;12.068;2023-04-24T06:19:26;26.42;;;15.30;;
53644;SDS011;39547;45.554;12.068;2023-04-24T06:25:29;27.23;;;15.10;;
53644;SDS011;39547;45.554;12.068;2023-04-24T06:31:31;28.10;;;15.82;;
53644;SDS011;39547;45.554;12.068;2023-04-24T06:37:39;26.98;;;14.57;;
53644;SDS011;39547;45.554;12.068;2023-04-24T06:43:41;25.15;;;13.70;;
53644;SDS011;39547;45.554;12.068;2023-04-24T06:49:42;23.90;;;12.95;;
53644;SDS011;39547;45.554;12.068;2023-04-24T06:55:44;25.42;;;13.85;;
53644;SDS011;39547;45.554;12.068;2023-04-24T07:01:47;22.52;;;12.20;;
53644;SDS011;39547;45.554;12.068;2023-04-24T07:07:48;25.13;;;13.88;;
53644;SDS011;39547;45.554;12.068;2023-04-24T07:13:51;21.52;;;11.98;;
53644;SDS011;39547;45.554;12.068;2023-04-24T07:19:52;25.38;;;14.00;;
53644;SDS011;39547;45.554;12.068;2023-04-24T07:25:54;24.17;;;12.13;;
53644;SDS011;39547;45.554;12.068;2023-04-24T07:31:55;22.27;;;12.10;;
53644;SDS011;39547;45.554;12.068;2023-04-24T07:37:57;24.23;;;14.02;;
53644;SDS011;39547;45.554;12.068;2023-04-24T07:43:58;30.90;;;15.80;;
53644;SDS011;39547;45.554;12.068;2023-04-24T07:50:00;27.00;;;14.95;;
53644;SDS011;39547;45.554;12.068;2023-04-24T07:56:01;23.30;;;13.43;;
53644;SDS011;39547;45.554;12.068;2023-04-24T08:02:03;23.10;;;13.20;;
53644;SDS011;39547;45.554;12.068;2023-04-24T08:08:04;25.35;;;12.80;;
53644;SDS011;39547;45.554;12.068;2023-04-24T08:14:06;21.15;;;10.45;;
53644;SDS011;39547;45.554;12.068;2023-04-24T08:20:08;16.55;;;8.18;;
53644;SDS011;39547;45.554;12.068;2023-04-24T08:26:14;18.23;;;9.15;;
53644;SDS011;39547;45.554;12.068;2023-04-24T08:32:17;19.17;;;9.75;;
53644;SDS011;39547;45.554;12.068;2023-04-24T08:38:18;17.08;;;8.77;;
53644;SDS011;39547;45.554;12.068;2023-04-24T08:44:19;15.80;;;7.68;;
53644;SDS011;39547;45.554;12.068;2023-04-24T08:50:21;16.42;;;7.50;;
53644;SDS011;39547;45.554;12.068;2023-04-24T08:56:23;14.93;;;6.45;;
53644;SDS011;39547;45.554;12.068;2023-04-24T09:02:25;11.70;;;4.53;;
53644;SDS011;39547;45.554;12.068;2023-04-24T09:08:27;11.30;;;3.85;;
53644;SDS011;39547;45.554;12.068;2023-04-24T09:14:30;12.07;;;3.53;;
53644;SDS011;39547;45.554;12.068;2023-04-24T09:20:32;11.02;;;3.67;;
53644;SDS011;39547;45.554;12.068;2023-04-24T09:26:36;11.18;;;3.78;;
53644;SDS011;39547;45.554;12.068;2023-04-24T09:32:38;12.70;;;4.03;;
53644;SDS011;39547;45.554;12.068;2023-04-24T09:38:39;11.80;;;4.07;;
53644;SDS011;39547;45.554;12.068;2023-04-24T09:44:41;11.80;;;3.78;;
53644;SDS011;39547;45.554;12.068;2023-04-24T09:50:45;11.25;;;3.78;;
53644;SDS011;39547;45.554;12.068;2023-04-24T09:56:48;11.70;;;3.80;;
53644;SDS011;39547;45.554;12.068;2023-04-24T10:02:54;11.90;;;4.25;;
53644;SDS011;39547;45.554;12.068;2023-04-24T10:09:03;11.77;;;4.30;;
53644;SDS011;39547;45.554;12.068;2023-04-24T10:15:04;12.10;;;4.65;;
53644;SDS011;39547;45.554;12.068;2023-04-24T10:21:07;13.20;;;4.88;;
53644;SDS011;39547;45.554;12.068;2023-04-24T10:27:08;12.55;;;4.88;;
53644;SDS011;39547;45.554;12.068;2023-04-24T10:33:10;11.57;;;4.18;;
53644;SDS011;39547;45.554;12.068;2023-04-24T10:39:13;11.20;;;3.47;;
53644;SDS011;39547;45.554;12.068;2023-04-24T10:45:17;11.40;;;4.00;;
53644;SDS011;39547;45.554;12.068;2023-04-24T10:51:22;12.70;;;3.70;;
53644;SDS011;39547;45.554;12.068;2023-04-24T10:57:28;11.55;;;3.95;;
53644;SDS011;39547;45.554;12.068;2023-04-24T11:03:32;12.23;;;4.55;;
53644;SDS011;39547;45.554;12.068;2023-04-24T11:09:35;12.10;;;4.05;;
53644;SDS011;39547;45.554;12.068;2023-04-24T11:15:37;15.18;;;4.75;;
53644;SDS011;39547;45.554;12.068;2023-04-24T11:27:47;13.00;;;5.10;;
53644;SDS011;39547;45.554;12.068;2023-04-24T11:33:50;12.65;;;4.18;;
53644;SDS011;39547;45.554;12.068;2023-04-24T11:39:54;11.48;;;4.35;;
53644;SDS011;39547;45.554;12.068;2023-04-24T11:45:58;11.23;;;3.90;;
53644;SDS011;39547;45.554;12.068;2023-04-24T11:52:01;11.40;;;3.78;;
53644;SDS011;39547;45.554;12.068;2023-04-24T11:58:02;11.75;;;3.85;;
53644;SDS011;39547;45.554;12.068;2023-04-24T12:04:03;11.27;;;3.65;;
53644;SDS011;39547;45.554;12.068;2023-04-24T12:10:05;9.90;;;3.10;;
53644;SDS011;39547;45.554;12.068;2023-04-24T12:16:07;10.13;;;2.70;;
53644;SDS011;39547;45.554;12.068;2023-04-24T12:22:08;9.57;;;2.50;;
53644;SDS011;39547;45.554;12.068;2023-04-24T12:28:11;9.05;;;2.40;;
53644;SDS011;39547;45.554;12.068;2023-04-24T12:34:23;7.75;;;2.15;;
53644;SDS011;39547;45.554;12.068;2023-04-24T12:40:26;7.88;;;2.10;;
53644;SDS011;39547;45.554;12.068;2023-04-24T12:46:28;7.65;;;2.20;;
53644;SDS011;39547;45.554;12.068;2023-04-24T12:52:30;5.78;;;1.98;;
53644;SDS011;39547;45.554;12.068;2023-04-24T12:58:31;7.57;;;2.10;;
53644;SDS011;39547;45.554;12.068;2023-04-24T13:04:33;7.80;;;2.22;;
53644;SDS011;39547;45.554;12.068;2023-04-24T13:10:34;6.53;;;2.00;;
53644;SDS011;39547;45.554;12.068;2023-04-24T13:16:36;7.60;;;2.13;;
53644;SDS011;39547;45.554;12.068;2023-04-24T13:22:37;5.90;;;1.90;;
53644;SDS011;39547;45.554;12.068;2023-04-24T13:28:39;8.32;;;2.30;;
53644;SDS011;39547;45.554;12.068;2023-04-24T13:34:40;6.63;;;2.00;;
53644;SDS011;39547;45.554;12.068;2023-04-24T13:40:42;6.25;;;1.80;;
53644;SDS011;39547;45.554;12.068;2023-04-24T13:46:44;5.40;;;1.83;;
53644;SDS011;39547;45.554;12.068;2023-04-24T13:52:46;7.00;;;1.90;;
53644;SDS011;39547;45.554;12.068;2023-04-24T13:58:47;4.68;;;1.67;;
53644;SDS011;39547;45.554;12.068;2023-04-24T14:04:49;5.43;;;1.70;;
53644;SDS011;39547;45.554;12.068;2023-04-24T14:10:50;5.20;;;1.67;;
53644;SDS011;39547;45.554;12.068;2023-04-24T14:16:52;4.05;;;1.40;;
53644;SDS011;39547;45.554;12.068;2023-04-24T14:22:53;3.97;;;1.35;;
53644;SDS011;39547;45.554;12.068;2023-04-24T14:28:55;4.57;;;1.50;;
53644;SDS011;39547;45.554;12.068;2023-04-24T14:34:59;3.65;;;1.30;;
53644;SDS011;39547;45.554;12.068;2023-04-24T14:41:00;4.00;;;1.50;;
53644;SDS011;39547;45.554;12.068;2023-04-24T14:47:02;4.03;;;1.35;;
53644;SDS011;39547;45.554;12.068;2023-04-24T14:53:03;4.15;;;1.38;;
53644;SDS011;39547;45.554;12.068;2023-04-24T14:59:05;2.63;;;1.33;;
53644;SDS011;39547;45.554;12.068;2023-04-24T15:05:07;2.70;;;1.30;;
53644;SDS011;39547;45.554;12.068;2023-04-24T15:11:09;4.30;;;1.50;;
53644;SDS011;39547;45.554;12.068;2023-04-24T15:17:11;3.90;;;1.60;;
53644;SDS011;39547;45.554;12.068;2023-04-24T15:23:12;4.07;;;1.40;;
53644;SDS011;39547;45.554;12.068;2023-04-24T15:29:14;4.50;;;1.52;;
53644;SDS011;39547;45.554;12.068;2023-04-24T15:35:15;4.03;;;1.50;;
53644;SDS011;39547;45.554;12.068;2023-04-24T15:41:18;4.80;;;1.60;;
53644;SDS011;39547;45.554;12.068;2023-04-24T15:47:19;2.47;;;1.27;;
53644;SDS011;39547;45.554;12.068;2023-04-24T15:53:21;4.22;;;1.42;;
53644;SDS011;39547;45.554;12.068;2023-04-24T15:59:22;4.13;;;1.55;;
53644;SDS011;39547;45.554;12.068;2023-04-24T16:05:24;5.07;;;1.52;;
53644;SDS011;39547;45.554;12.068;2023-04-24T16:11:25;4.93;;;1.70;;
53644;SDS011;39547;45.554;12.068;2023-04-24T16:17:27;5.55;;;1.70;;
53644;SDS011;39547;45.554;12.068;2023-04-24T16:23:28;5.47;;;1.70;;
53644;SDS011;39547;45.554;12.068;2023-04-24T16:29:30;4.82;;;1.80;;
53644;SDS011;39547;45.554;12.068;2023-04-24T16:35:32;7.85;;;2.08;;
53644;SDS011;39547;45.554;12.068;2023-04-24T16:41:33;7.97;;;2.20;;
53644;SDS011;39547;45.554;12.068;2023-04-24T16:47:35;6.35;;;1.90;;
53644;SDS011;39547;45.554;12.068;2023-04-24T16:53:36;5.80;;;1.75;;
53644;SDS011;39547;45.554;12.068;2023-04-24T16:59:38;6.63;;;1.90;;
53644;SDS011;39547;45.554;12.068;2023-04-24T17:05:39;9.00;;;2.00;;
53644;SDS011;39547;45.554;12.068;2023-04-24T17:11:41;7.03;;;1.90;;
53644;SDS011;39547;45.554;12.068;2023-04-24T17:17:42;5.45;;;1.80;;
53644;SDS011;39547;45.554;12.068;2023-04-24T17:23:45;7.60;;;2.00;;
53644;SDS011;39547;45.554;12.068;2023-04-24T17:29:47;9.77;;;2.70;;
53644;SDS011;39547;45.554;12.068;2023-04-24T17:35:49;9.93;;;2.50;;
53644;SDS011;39547;45.554;12.068;2023-04-24T17:41:51;9.30;;;2.50;;
53644;SDS011;39547;45.554;12.068;2023-04-24T17:47:52;9.70;;;2.42;;
53644;SDS011;39547;45.554;12.068;2023-04-24T17:53:55;8.50;;;2.20;;
53644;SDS011;39547;45.554;12.068;2023-04-24T17:59:57;6.82;;;1.85;;
53644;SDS011;39547;45.554;12.068;2023-04-24T18:05:58;8.77;;;2.25;;
53644;SDS011;39547;45.554;12.068;2023-04-24T18:11:59;6.03;;;2.00;;
53644;SDS011;39547;45.554;12.068;2023-04-24T18:18:01;7.32;;;2.10;;
53644;SDS011;39547;45.554;12.068;2023-04-24T18:24:03;7.88;;;2.13;;
53644;SDS011;39547;45.554;12.068;2023-04-24T18:30:06;7.75;;;2.00;;
53644;SDS011;39547;45.554;12.068;2023-04-24T18:36:09;9.03;;;2.30;;
53644;SDS011;39547;45.554;12.068;2023-04-24T18:42:10;9.43;;;2.50;;
53644;SDS011;39547;45.554;12.068;2023-04-24T18:48:12;9.65;;;2.50;;
53644;SDS011;39547;45.554;12.068;2023-04-24T18:54:13;10.07;;;2.70;;
53644;SDS011;39547;45.554;12.068;2023-04-24T19:00:15;10.20;;;2.60;;
53644;SDS011;39547;45.554;12.068;2023-04-24T19:06:17;10.20;;;2.60;;
53644;SDS011;39547;45.554;12.068;2023-04-24T19:12:19;10.40;;;2.90;;
53644;SDS011;39547;45.554;12.068;2023-04-24T19:18:21;11.77;;;3.10;;
53644;SDS011;39547;45.554;12.068;2023-04-24T19:24:23;10.80;;;2.95;;
53644;SDS011;39547;45.554;12.068;2023-04-24T19:30:25;10.82;;;3.00;;
53644;SDS011;39547;45.554;12.068;2023-04-24T19:36:28;9.90;;;2.72;;
53644;SDS011;39547;45.554;12.068;2023-04-24T19:42:30;10.17;;;2.77;;
53644;SDS011;39547;45.554;12.068;2023-04-24T19:48:32;10.95;;;3.15;;
53644;SDS011;39547;45.554;12.068;2023-04-24T19:54:33;10.98;;;3.50;;
53644;SDS011;39547;45.554;12.068;2023-04-24T20:00:35;11.30;;;3.53;;
53644;SDS011;39547;45.554;12.068;2023-04-24T20:06:37;10.65;;;3.10;;
53644;SDS011;39547;45.554;12.068;2023-04-24T20:12:39;10.38;;;2.80;;
53644;SDS011;39547;45.554;12.068;2023-04-24T20:18:40;10.27;;;2.95;;
53644;SDS011;39547;45.554;12.068;2023-04-24T20:24:42;10.52;;;2.97;;
53644;SDS011;39547;45.554;12.068;2023-04-24T20:30:44;10.73;;;3.30;;
53644;SDS011;39547;45.554;12.068;2023-04-24T20:36:46;12.30;;;3.22;;
53644;SDS011;39547;45.554;12.068;2023-04-24T20:42:47;11.45;;;3.53;;
53644;SDS011;39547;45.554;12.068;2023-04-24T20:48:49;11.02;;;3.40;;
53644;SDS011;39547;45.554;12.068;2023-04-24T20:54:50;12.77;;;4.30;;
53644;SDS011;39547;45.554;12.068;2023-04-24T21:00:52;12.63;;;4.53;;
53644;SDS011;39547;45.554;12.068;2023-04-24T21:06:54;13.18;;;5.18;;
53644;SDS011;39547;45.554;12.068;2023-04-24T21:12:55;13.68;;;4.90;;
53644;SDS011;39547;45.554;12.068;2023-04-24T21:18:56;14.27;;;5.25;;
53644;SDS011;39547;45.554;12.068;2023-04-24T21:24:58;17.08;;;8.50;;
53644;SDS011;39547;45.554;12.068;2023-04-24T21:30:59;17.42;;;8.45;;
53644;SDS011;39547;45.554;12.068;2023-04-24T21:37:01;15.93;;;7.40;;
53644;SDS011;39547;45.554;12.068;2023-04-24T21:43:02;15.10;;;6.07;;
53644;SDS011;39547;45.554;12.068;2023-04-24T21:49:04;15.10;;;6.40;;
53644;SDS011;39547;45.554;12.068;2023-04-24T21:55:06;13.70;;;6.03;;
53644;SDS011;39547;45.554;12.068;2023-04-24T22:01:08;15.43;;;6.47;;
53644;SDS011;39547;45.554;12.068;2023-04-24T22:07:09;14.55;;;6.03;;
53644;SDS011;39547;45.554;12.068;2023-04-24T22:13:10;15.43;;;6.65;;
53644;SDS011;39547;45.554;12.068;2023-04-24T22:19:12;16.08;;;7.85;;
53644;SDS011;39547;45.554;12.068;2023-04-24T22:25:16;18.02;;;8.30;;
53644;SDS011;39547;45.554;12.068;2023-04-24T22:31:17;15.53;;;7.43;;
53644;SDS011;39547;45.554;12.068;2023-04-24T22:37:19;13.98;;;6.18;;
53644;SDS011;39547;45.554;12.068;2023-04-24T22:43:21;14.00;;;6.38;;
53644;SDS011;39547;45.554;12.068;2023-04-24T22:49:22;16.02;;;6.53;;
53644;SDS011;39547;45.554;12.068;2023-04-24T22:55:27;12.90;;;5.32;;
53644;SDS011;39547;45.554;12.068;2023-04-24T23:01:28;15.75;;;5.38;;
53644;SDS011;39547;45.554;12.068;2023-04-24T23:07:30;14.38;;;6.45;;
53644;SDS011;39547;45.554;12.068;2023-04-24T23:13:31;14.52;;;6.57;;
53644;SDS011;39547;45.554;12.068;2023-04-24T23:19:33;14.45;;;6.07;;
53644;SDS011;39547;45.554;12.068;2023-04-24T23:25:34;13.48;;;5.50;;
53644;SDS011;39547;45.554;12.068;2023-04-24T23:31:36;14.32;;;5.82;;
53644;SDS011;39547;45.554;12.068;2023-04-24T23:37:37;13.93;;;5.10;;
53644;SDS011;39547;45.554;12.068;2023-04-24T23:43:39;13.15;;;5.05;;
53644;SDS011;39547;45.554;12.068;2023-04-24T23:49:40;13.02;;;5.38;;
53644;SDS011;39547;45.554;12.068;2023-04-24T23:55:42;12.10;;;4.55;;
